Aérodrome :
LOGIN :

S'inscrire | Disclaimer

   EN    FR    IT 

 










Légende :    VFR   VFR Marginal   IFR   IFR Intensif   IFR Très Intensif
Visi : 
Plafond : 
>= 8 km
>= 3000ft
5 à 8 km
1000 à 3000 ft
1500m à 5 km
500 à 1000 ft
800 à 1500m
200 à 500 ft
< 800m
< 200 ft
Symboles :   Orages  Brouillard  Fortes neiges  Fortes précipitations  Vent > 20 kt
SIGMETs :   Divers  Orages  Givrage  Turbulence  Onde Orograph.  Cendres Volcan.







- Altitude de l'aérodrome : 1247 ft
- Code IATA : PRG


LKPR - Praha Ruzyne

DERNIER METAR :
  • 212330Z 17004KT 9000 NSC M04/M05 Q1017 R24/29//95 R30/350194 NOSIG

METARs EXPIRÉS :
  • 212300Z 20005KT 9000 NSC M06/M07 Q1017 R24/29//95 R30/350194 NOSIG
  • 212230Z 19006KT 160V220 9000 NSC M05/M06 Q1017 R24/29//95 R30/350194 NOSIG
  • 212200Z 18006KT 9000 FEW020 M05/M06 Q1017 R24/29//95 R30/350194 NOSIG
  • 212130Z 19005KT 8000 FEW017 M05/M05 Q1018 R24/29//95 R30/350194 NOSIG
  • 212100Z 15005KT 7000 NSC M05/M06 Q1017 R24/29//95 R30/350194 NOSIG

TAF TAF LKPR
Valide du 22 à 00h jusqu'au 23 à 06h UTC


212300Z 2200/2306 16006KT 9999 SCT020
TEMPO 2200/2207 3000 BR SCT007
BECMG 2212/2214 16010KT 8000 -SN BKN020
TEMPO 2214/2306 4000 SN BKN010
BECMG 2300/2303 27010KT
Pas de NOTAMs connus pour ce terrain.



MET'MAP, la Météo Aéronautique d'un coup d'oeil ! - Copyright ORBIFLY Décembre 2007 - Disclaimer

ORBIFLY MET'MAP TEAM :

Programmation & Développement : Alexandra Zaïnal
Conception & Développement : Baudouin d'Aumeries
Co-Programmation & Développement : Marc-Olivier Méhu
Soutien technique & logistique : Manuel Goepfert

Contact : metmap@orbifly.com




SOURCES & CREDITS :

   NOAA